Time;durP1;ratioP1;P1;durP2;ratioP2;P2;SDS_P1;SDS_P2;PMS_P1;PMS_P2;Temp;Humidity;BMP_temperature;BMP_pressure;BME280_temperature;BME280_humidity;BME280_pressure;Samples;Min_cycle;Max_cycle;Signal;HPM_P1;HPM_P2
2023/07/29 00:02:25;;;;;;;13.27;10.43;;;13.30;99.90;12.70;99598;;;;559314;253;24125;-80
2023/07/29 00:04:53;;;;;;;12.53;10.90;;;13.20;99.90;12.70;99605;;;;559379;253;24136;-80
2023/07/29 00:07:21;;;;;;;13.53;10.10;;;13.20;99.90;12.70;99605;;;;559394;253;24127;-80
2023/07/29 00:09:49;;;;;;;15.40;10.87;;;13.20;99.90;12.60;99603;;;;559395;253;24100;-79
2023/07/29 00:12:18;;;;;;;12.00;9.37;;;13.20;99.90;12.60;99595;;;;559386;253;24127;-80
2023/07/29 00:14:46;;;;;;;16.07;9.70;;;13.10;99.90;12.60;99600;;;;559291;253;24105;-80
2023/07/29 00:17:15;;;;;;;19.27;11.27;;;13.10;99.90;12.60;99601;;;;560504;252;24135;-82
2023/07/29 00:19:43;;;;;;;14.00;11.07;;;13.10;99.90;12.60;99600;;;;560416;252;24173;-80
2023/07/29 00:22:11;;;;;;;13.03;9.73;;;13.10;99.90;12.50;99604;;;;559937;252;24111;-80
2023/07/29 00:24:42;;;;;;;13.40;10.20;;;13.10;99.90;12.50;99604;;;;559781;252;24122;-79
2023/07/29 00:27:07;;;;;;;15.60;10.20;;;13.10;99.90;12.60;99600;;;;557798;252;24134;-83
2023/07/29 00:29:35;;;;;;;12.97;10.40;;;13.10;99.90;12.60;99606;;;;559527;252;24135;-80
2023/07/29 00:32:03;;;;;;;13.93;10.73;;;13.10;99.90;12.60;99602;;;;559478;252;24120;-81
2023/07/29 00:34:30;;;;;;;11.87;10.20;;;13.10;99.90;12.60;99607;;;;559488;252;24151;-79
2023/07/29 00:36:58;;;;;;;14.67;11.20;;;13.10;99.90;12.60;99602;;;;559246;252;24108;-79
2023/07/29 00:39:26;;;;;;;16.50;10.97;;;13.10;99.90;12.50;99604;;;;559440;252;24113;-81
2023/07/29 00:41:54;;;;;;;11.93;10.20;;;13.10;99.90;12.50;99605;;;;559263;252;24140;-79
2023/07/29 00:44:22;;;;;;;15.20;10.70;;;13.10;99.90;12.50;99603;;;;559217;252;24100;-79
2023/07/29 00:46:53;;;;;;;13.20;10.20;;;13.00;99.90;12.50;99607;;;;559371;252;24122;-80
2023/07/29 00:49:24;;;;;;;14.77;11.07;;;13.00;99.90;12.40;99608;;;;559327;252;24108;-79
2023/07/29 00:51:49;;;;;;;16.20;11.43;;;12.90;99.90;12.40;99609;;;;567510;253;24116;-80
2023/07/29 00:54:17;;;;;;;14.73;11.00;;;12.90;99.90;12.30;99611;;;;559411;253;24124;-79
2023/07/29 00:56:44;;;;;;;15.57;9.63;;;12.90;99.90;12.30;99603;;;;559152;253;24115;-81
2023/07/29 00:59:16;;;;;;;12.40;10.67;;;12.90;99.90;12.30;99611;;;;567300;249;24122;-81
2023/07/29 01:01:40;;;;;;;12.63;10.13;;;12.80;99.90;12.20;99606;;;;559037;253;24195;-80
2023/07/29 01:04:08;;;;;;;11.67;10.50;;;12.80;99.90;12.20;99603;;;;559128;253;24104;-81
2023/07/29 01:06:51;;;;;;;16.37;11.50;;;12.70;99.90;12.20;99606;;;;559132;253;24146;-82
2023/07/29 01:09:26;;;;;;;13.33;10.80;;;12.70;99.90;12.20;99602;;;;557596;253;24116;-80
2023/07/29 01:12:09;;;;;;;16.07;11.17;;;12.70;99.90;12.10;99605;;;;556339;253;24133;-80
2023/07/29 01:14:46;;;;;;;14.07;11.17;;;12.70;99.90;12.10;99615;;;;558016;253;24122;-79
2023/07/29 01:17:29;;;;;;;16.17;11.97;;;12.60;99.90;12.10;99613;;;;559147;253;24111;-80
2023/07/29 01:20:08;;;;;;;14.83;11.33;;;12.60;99.90;12.10;99605;;;;557085;255;24251;-81
2023/07/29 01:22:40;;;;;;;12.80;10.93;;;12.60;99.90;12.10;99611;;;;571410;246;24099;-80
2023/07/29 01:25:04;;;;;;;16.10;11.27;;;12.60;99.90;12.10;99609;;;;580479;246;24109;-78
2023/07/29 01:27:35;;;;;;;14.07;10.93;;;12.60;99.90;12.10;99608;;;;576725;245;24156;-81
2023/07/29 01:30:00;;;;;;;14.20;10.83;;;12.60;99.90;12.10;99611;;;;583215;246;24122;-81
2023/07/29 01:32:33;;;;;;;21.40;15.40;;;12.60;99.90;12.00;99604;;;;569400;246;35437;-80
2023/07/29 01:35:01;;;;;;;13.27;11.43;;;12.60;99.90;12.00;99609;;;;574015;246;24072;-80
2023/07/29 01:37:29;;;;;;;15.63;11.00;;;12.50;99.90;12.00;99608;;;;582232;246;24140;-80
2023/07/29 01:39:56;;;;;;;13.23;10.60;;;12.50;99.90;11.90;99605;;;;582531;245;24164;-78
2023/07/29 01:42:27;;;;;;;20.03;12.23;;;12.50;99.90;11.90;99599;;;;582421;242;24093;-81
2023/07/29 01:44:52;;;;;;;17.37;11.77;;;12.40;99.90;11.90;99600;;;;573544;246;24083;-79
2023/07/29 01:47:23;;;;;;;15.33;11.30;;;12.40;99.90;11.80;99603;;;;582823;245;24091;-82
2023/07/29 01:49:48;;;;;;;16.53;11.47;;;12.40;99.90;11.80;99596;;;;581397;246;25187;-82
2023/07/29 01:52:16;;;;;;;14.93;11.47;;;12.40;99.90;11.80;99604;;;;582462;245;24071;-81
2023/07/29 01:54:44;;;;;;;14.60;11.33;;;12.40;99.90;11.80;99604;;;;582764;245;24104;-81
2023/07/29 01:57:12;;;;;;;14.10;11.87;;;12.40;99.90;11.80;99604;;;;582823;243;24090;-79
2023/07/29 01:59:40;;;;;;;14.40;12.10;;;12.30;99.90;11.80;99602;;;;582870;242;24108;-79
2023/07/29 02:02:08;;;;;;;15.60;11.60;;;12.30;99.90;11.80;99602;;;;583475;246;24183;-81
2023/07/29 02:04:39;;;;;;;15.43;13.07;;;12.30;99.90;11.80;99612;;;;582307;245;24115;-79
2023/07/29 02:07:04;;;;;;;14.03;11.30;;;12.30;99.90;11.70;99604;;;;582015;242;24107;-81
2023/07/29 02:09:32;;;;;;;16.57;12.90;;;12.30;99.90;11.70;99609;;;;582255;246;24119;-78
2023/07/29 02:11:59;;;;;;;17.43;12.67;;;12.30;99.90;11.70;99600;;;;582320;242;24103;-77
2023/07/29 02:14:28;;;;;;;20.50;12.47;;;12.30;99.90;11.70;99610;;;;574792;246;24189;-78
2023/07/29 02:16:56;;;;;;;19.97;12.77;;;12.30;99.90;11.70;99605;;;;583304;246;24094;-78
2023/07/29 02:19:24;;;;;;;19.33;12.07;;;12.30;99.90;11.70;99606;;;;582593;242;24082;-80
2023/07/29 02:21:52;;;;;;;18.00;12.27;;;12.30;99.90;11.70;99609;;;;582343;246;24119;-80
2023/07/29 02:24:20;;;;;;;16.40;12.10;;;12.20;99.90;11.70;99608;;;;582685;246;24088;-79
2023/07/29 02:26:48;;;;;;;20.57;16.47;;;12.20;99.90;11.70;99616;;;;577469;246;35385;-81
2023/07/29 02:29:16;;;;;;;16.27;12.40;;;12.20;99.90;11.70;99626;;;;582116;242;24093;-80
2023/07/29 02:31:44;;;;;;;18.10;11.70;;;12.20;99.90;11.70;99628;;;;582424;246;24113;-81
2023/07/29 02:34:12;;;;;;;13.23;11.40;;;12.20;99.90;11.60;99625;;;;582479;242;24145;-81
2023/07/29 02:36:40;;;;;;;14.87;11.77;;;12.20;99.90;11.70;99628;;;;582357;246;24126;-81
2023/07/29 02:39:08;;;;;;;14.33;11.07;;;12.20;99.90;11.60;99621;;;;582737;245;24094;-80
2023/07/29 02:41:36;;;;;;;17.00;11.80;;;12.20;99.90;11.70;99627;;;;583786;245;24097;-80
2023/07/29 02:44:08;;;;;;;15.57;12.13;;;12.20;99.90;11.70;99622;;;;583099;245;24153;-80
2023/07/29 02:46:33;;;;;;;14.37;11.47;;;12.10;99.90;11.60;99626;;;;582373;242;24104;-79
2023/07/29 02:49:04;;;;;;;17.53;13.13;;;12.10;99.90;11.60;99624;;;;583325;245;24095;-80
2023/07/29 02:51:32;;;;;;;15.77;11.80;;;12.10;99.90;11.70;99619;;;;574293;246;24087;-80
2023/07/29 02:54:00;;;;;;;12.90;10.37;;;12.20;99.90;11.70;99625;;;;583588;242;24074;-80
2023/07/29 02:56:28;;;;;;;14.60;11.83;;;12.20;99.90;11.70;99621;;;;583544;245;24102;-80
2023/07/29 02:58:55;;;;;;;18.53;11.60;;;12.30;99.90;11.80;99617;;;;582907;245;24115;-79
2023/07/29 03:01:25;;;;;;;14.77;11.00;;;12.30;99.90;11.90;99629;;;;582968;246;24081;-81
2023/07/29 03:03:54;;;;;;;14.13;11.07;;;12.30;99.90;11.90;99624;;;;582825;245;24076;-81
2023/07/29 03:06:19;;;;;;;14.97;10.47;;;12.40;99.90;12.00;99623;;;;582507;246;24141;-81
2023/07/29 03:08:47;;;;;;;15.90;10.57;;;12.50;99.90;12.10;99629;;;;574102;246;24124;-81
2023/07/29 03:11:20;;;;;;;13.00;11.33;;;12.60;99.90;12.20;99629;;;;582620;242;24119;-80
2023/07/29 03:13:45;;;;;;;12.37;10.10;;;12.70;99.90;12.30;99633;;;;573564;246;24092;-79
2023/07/29 03:16:15;;;;;;;14.07;11.23;;;12.70;99.90;12.30;99634;;;;582307;245;24118;-80
2023/07/29 03:18:44;;;;;;;14.83;10.10;;;12.80;99.90;12.30;99640;;;;582129;242;24118;-80
2023/07/29 03:21:09;;;;;;;16.43;10.90;;;12.80;99.90;12.40;99639;;;;571129;246;24202;-79
2023/07/29 03:23:37;;;;;;;14.37;10.53;;;12.80;99.90;12.40;99644;;;;573401;246;24086;-79
2023/07/29 03:26:14;;;;;;;18.27;10.17;;;12.80;99.90;12.40;99647;;;;574291;246;24071;-82
2023/07/29 03:28:36;;;;;;;13.43;10.53;;;12.90;99.90;12.50;99649;;;;582528;242;24090;-79
2023/07/29 03:31:01;;;;;;;14.30;10.17;;;12.90;99.90;12.50;99648;;;;573536;246;24088;-80
2023/07/29 03:33:29;;;;;;;15.07;10.03;;;12.90;99.90;12.50;99649;;;;582143;242;24089;-79
2023/07/29 03:35:57;;;;;;;13.77;9.60;;;13.00;99.90;12.60;99646;;;;582560;246;24094;-80
2023/07/29 03:38:24;;;;;;;14.00;9.60;;;13.00;99.90;12.60;99645;;;;582580;242;24056;-79
2023/07/29 03:40:53;;;;;;;15.03;10.53;;;13.00;99.90;12.70;99647;;;;582561;246;24100;-80
2023/07/29 03:43:24;;;;;;;14.57;10.13;;;13.10;99.90;12.70;99648;;;;582480;246;24099;-80
2023/07/29 03:45:48;;;;;;;12.80;10.37;;;13.10;99.90;12.80;99657;;;;573473;246;24158;-81
2023/07/29 03:48:16;;;;;;;13.93;10.17;;;13.20;99.90;12.80;99651;;;;582770;246;24108;-80
2023/07/29 03:50:44;;;;;;;11.13;9.30;;;13.20;99.90;13.00;99657;;;;583148;245;24093;-81
2023/07/29 03:53:12;;;;;;;13.43;10.63;;;13.30;99.90;13.50;99659;;;;584349;245;24086;-79
2023/07/29 03:55:40;;;;;;;14.63;9.87;;;13.80;99.90;14.30;99669;;;;583947;245;24166;-81
2023/07/29 03:58:08;;;;;;;12.53;9.90;;;14.50;99.90;15.00;99672;;;;583308;245;24116;-81
2023/07/29 04:00:36;;;;;;;12.57;10.17;;;15.20;99.90;15.60;99675;;;;583632;242;24228;-81
2023/07/29 04:03:04;;;;;;;13.03;9.20;;;15.90;99.90;16.20;99678;;;;582754;246;24127;-79
2023/07/29 04:05:31;;;;;;;10.77;9.67;;;16.40;99.90;16.80;99673;;;;582632;245;24090;-82
2023/07/29 04:07:59;;;;;;;9.93;8.90;;;17.10;99.90;17.30;99682;;;;582874;242;24076;-80
2023/07/29 04:10:27;;;;;;;11.00;9.67;;;17.60;99.90;17.60;99685;;;;582565;245;24069;-80
2023/07/29 04:12:55;;;;;;;10.77;9.23;;;18.00;99.90;18.20;99688;;;;582420;242;24080;-81
2023/07/29 04:15:23;;;;;;;9.03;8.13;;;18.50;99.90;18.90;99701;;;;582392;245;24152;-82
2023/07/29 04:17:51;;;;;;;9.60;8.70;;;19.10;99.90;19.50;99703;;;;582740;246;24179;-82
2023/07/29 04:20:19;;;;;;;9.00;8.20;;;19.90;99.90;20.10;99708;;;;582712;242;24073;-81
2023/07/29 04:22:47;;;;;;;8.20;7.53;;;20.60;99.90;20.70;99708;;;;582253;246;23108;-82
2023/07/29 04:25:15;;;;;;;8.63;7.83;;;21.30;99.90;21.40;99707;;;;582892;245;24116;-82
2023/07/29 04:27:43;;;;;;;7.27;6.60;;;22.00;99.90;21.90;99704;;;;582792;245;24079;-82
2023/07/29 04:30:11;;;;;;;7.00;6.40;;;22.60;99.90;22.50;99708;;;;571251;250;24142;-82
2023/07/29 04:32:39;;;;;;;5.53;5.13;;;24.00;99.90;23.10;99703;;;;562185;251;24148;-80
2023/07/29 04:35:11;;;;;;;6.03;5.63;;;24.60;99.90;23.70;99698;;;;562118;251;24171;-80
2023/07/29 04:37:40;;;;;;;4.77;4.47;;;25.30;99.90;24.50;99698;;;;562303;251;23126;-80
2023/07/29 04:40:11;;;;;;;5.40;4.90;;;25.30;99.90;25.00;99696;;;;562129;251;23130;-80
2023/07/29 04:42:36;;;;;;;5.00;4.70;;;26.60;99.90;25.60;99696;;;;561863;251;24109;-79
2023/07/29 04:45:04;;;;;;;4.50;4.20;;;26.50;99.90;26.00;99693;;;;560413;255;24133;-80
2023/07/29 04:47:32;;;;;;;4.97;4.57;;;27.10;99.90;26.70;99702;;;;551862;256;24124;-79
2023/07/29 04:50:00;;;;;;;4.43;4.05;;;27.90;99.90;27.50;99692;;;;562125;251;23235;-81
2023/07/29 04:52:28;;;;;;;3.90;3.70;;;28.50;99.90;28.20;99689;;;;570519;248;24214;-80
2023/07/29 04:54:56;;;;;;;4.53;4.07;;;29.30;99.90;28.90;99696;;;;562472;251;24126;-79
2023/07/29 04:57:25;;;;;;;3.90;3.60;;;30.60;97.80;29.40;99692;;;;564718;247;23112;-80
2023/07/29 04:59:53;;;;;;;4.10;3.80;;;31.20;95.60;30.10;99700;;;;562647;251;23116;-80
2023/07/29 05:02:21;;;;;;;3.70;3.47;;;31.10;95.50;30.80;99695;;;;566332;250;23165;-80
2023/07/29 05:04:49;;;;;;;3.80;3.60;;;31.80;92.00;31.40;99707;;;;564068;251;23121;-83
2023/07/29 05:07:17;;;;;;;3.58;3.37;;;32.50;87.80;31.90;99704;;;;565547;251;23115;-84
2023/07/29 05:09:45;;;;;;;3.83;3.42;;;33.10;84.60;32.30;99705;;;;563437;251;24149;-82
2023/07/29 05:12:13;;;;;;;2.97;2.87;;;33.50;80.90;32.50;99711;;;;565405;250;23118;-82
2023/07/29 05:14:41;;;;;;;5.70;3.70;;;33.70;78.30;32.10;99711;;;;563250;251;23145;-81
2023/07/29 05:17:09;;;;;;;3.40;3.20;;;33.30;76.60;32.00;99714;;;;565735;250;23123;-82
2023/07/29 05:19:36;;;;;;;3.55;3.25;;;33.00;76.10;32.20;99716;;;;563243;251;23124;-81
2023/07/29 05:22:04;;;;;;;3.20;3.03;;;33.10;75.30;32.60;99714;;;;564728;250;24212;-82
2023/07/29 05:24:32;;;;;;;4.18;3.08;;;33.40;75.00;32.90;99727;;;;562642;251;23165;-82
2023/07/29 05:27:01;;;;;;;5.37;3.00;;;34.10;71.50;33.30;99725;;;;564867;250;23132;-81
2023/07/29 05:29:29;;;;;;;3.33;3.05;;;34.10;71.50;33.90;99720;;;;562749;251;23159;-81
2023/07/29 05:31:58;;;;;;;3.78;3.55;;;34.60;70.10;34.60;99715;;;;560184;251;35526;-81
2023/07/29 05:34:26;;;;;;;3.47;3.20;;;35.30;66.50;34.80;99724;;;;562746;251;23246;-82
2023/07/29 05:36:54;;;;;;;3.22;3.03;;;35.70;64.90;34.90;99722;;;;551597;253;23175;-83
2023/07/29 05:39:22;;;;;;;3.15;3.00;;;35.80;63.80;34.80;99727;;;;552551;256;23153;-83
2023/07/29 05:41:51;;;;;;;3.12;2.80;;;35.70;63.30;34.90;99728;;;;562632;251;23125;-81
2023/07/29 05:44:19;;;;;;;3.08;2.87;;;35.60;63.10;35.30;99731;;;;570826;251;23140;-82
2023/07/29 05:46:47;;;;;;;3.90;2.97;;;35.90;62.60;35.80;99735;;;;562433;251;23115;-82
2023/07/29 05:49:15;;;;;;;3.22;3.10;;;36.30;61.50;36.30;99736;;;;564518;251;23142;-81
2023/07/29 05:51:45;;;;;;;3.15;3.00;;;37.20;57.40;36.60;99749;;;;562549;251;23173;-83
2023/07/29 05:54:12;;;;;;;3.25;3.05;;;37.10;57.30;36.30;99743;;;;564915;251;23166;-84
2023/07/29 05:56:40;;;;;;;3.35;3.15;;;37.00;57.40;36.00;99745;;;;562805;251;23116;-81
2023/07/29 05:59:09;;;;;;;3.08;2.83;;;36.80;57.20;35.80;99745;;;;562353;251;23150;-81
2023/07/29 06:01:37;;;;;;;2.75;2.65;;;36.60;57.80;36.20;99757;;;;562762;251;24153;-83
2023/07/29 06:04:05;;;;;;;3.30;3.00;;;36.80;58.10;37.20;99767;;;;577630;248;23130;-83
2023/07/29 06:06:36;;;;;;;4.37;2.67;;;37.50;57.30;38.10;99766;;;;562867;251;23210;-83
2023/07/29 06:09:01;;;;;;;2.95;2.75;;;38.50;55.80;38.90;99766;;;;562797;251;23128;-82
2023/07/29 06:11:29;;;;;;;6.35;3.12;;;39.30;54.90;39.80;99764;;;;562527;251;23190;-83
2023/07/29 06:13:57;;;;;;;5.32;3.15;;;40.10;53.30;40.50;99767;;;;565527;250;23144;-83
2023/07/29 06:16:26;;;;;;;5.28;3.42;;;41.40;50.80;41.00;99770;;;;564213;251;23123;-84
2023/07/29 06:18:53;;;;;;;5.40;3.17;;;41.30;50.70;41.50;99771;;;;566427;251;23157;-85
2023/07/29 06:21:24;;;;;;;2.92;2.70;;;41.80;50.20;41.90;99762;;;;563819;251;23150;-83
2023/07/29 06:23:49;;;;;;;4.87;2.42;;;42.30;49.20;42.50;99763;;;;555672;254;24166;-85
2023/07/29 06:26:17;;;;;;;3.30;2.65;;;42.90;47.90;42.60;99771;;;;552836;256;23160;-86
2023/07/29 06:28:45;;;;;;;2.70;2.50;;;43.10;47.40;42.60;99770;;;;563290;251;23138;-85
2023/07/29 06:31:13;;;;;;;2.62;2.53;;;43.10;46.70;42.50;99781;;;;571633;251;23166;-86
2023/07/29 06:33:41;;;;;;;4.72;2.47;;;43.00;45.80;42.30;99779;;;;563187;251;23123;-83
2023/07/29 06:36:09;;;;;;;2.35;2.20;;;42.80;45.90;42.60;99776;;;;571849;251;23127;-84
2023/07/29 06:38:38;;;;;;;2.83;2.50;;;43.00;46.50;43.40;99773;;;;563030;251;23118;-85
2023/07/29 06:41:08;;;;;;;2.58;2.37;;;43.60;45.30;44.10;99771;;;;555338;255;23148;-85
2023/07/29 06:43:36;;;;;;;2.55;2.30;;;44.30;43.50;44.50;99780;;;;560552;256;23147;-85
2023/07/29 06:46:03;;;;;;;2.40;2.28;;;44.80;44.00;45.20;99781;;;;562650;251;23162;-85
2023/07/29 06:48:31;;;;;;;2.50;2.30;;;45.50;42.90;46.00;99778;;;;571093;247;23128;-85
2023/07/29 06:51:03;;;;;;;2.00;1.90;;;46.90;40.60;46.70;99781;;;;562519;251;24143;-85
2023/07/29 06:53:31;;;;;;;5.22;2.00;;;46.80;40.50;46.90;99782;;;;570598;251;29691;-85
2023/07/29 06:55:56;;;;;;;5.03;2.40;;;47.30;39.60;47.30;99781;;;;558872;253;23130;-85
2023/07/29 06:58:24;;;;;;;2.80;2.60;;;47.50;39.60;47.60;99766;;;;559059;253;23156;-83
2023/07/29 07:00:52;;;;;;;3.00;2.80;;;47.90;39.30;48.20;99771;;;;559012;253;23122;-84
2023/07/29 07:03:20;;;;;;;3.12;2.37;;;48.30;38.30;48.50;99766;;;;559057;253;23138;-84
2023/07/29 07:05:51;;;;;;;2.25;2.17;;;48.60;37.80;48.90;99768;;;;559013;253;23137;-83
2023/07/29 07:08:15;;;;;;;2.60;2.40;;;49.10;37.90;49.60;99771;;;;567310;251;23159;-83
2023/07/29 07:10:43;;;;;;;5.70;2.53;;;49.70;37.00;49.60;99768;;;;559376;253;23170;-84
2023/07/29 07:13:11;;;;;;;2.40;2.30;;;50.00;36.30;49.50;99769;;;;559433;253;23110;-84
2023/07/29 07:15:39;;;;;;;3.10;2.67;;;49.90;35.90;49.70;99772;;;;559447;253;23125;-83
2023/07/29 07:18:10;;;;;;;2.67;2.45;;;49.90;35.90;49.80;99782;;;;559419;253;23145;-85
2023/07/29 07:20:35;;;;;;;5.00;2.67;;;50.00;35.50;50.00;99779;;;;557140;253;23155;-86
2023/07/29 07:23:05;;;;;;;2.65;2.47;;;50.20;35.30;50.20;99781;;;;559401;253;23141;-85
2023/07/29 07:25:35;;;;;;;2.50;2.40;;;50.40;35.50;50.10;99781;;;;559797;252;23131;-85
2023/07/29 07:28:00;;;;;;;4.78;2.22;;;50.20;35.60;49.90;99781;;;;557799;252;23216;-85
2023/07/29 07:30:28;;;;;;;2.62;2.42;;;50.20;35.50;49.90;99776;;;;559831;252;23220;-85
2023/07/29 07:32:56;;;;;;;2.60;2.50;;;50.10;35.30;50.00;99790;;;;559910;252;23143;-84
2023/07/29 07:35:24;;;;;;;2.80;2.30;;;50.20;35.90;50.00;99780;;;;559662;252;23121;-85
2023/07/29 07:37:52;;;;;;;5.47;3.15;;;50.30;35.80;50.10;99782;;;;559895;252;24185;-84
2023/07/29 07:40:20;;;;;;;2.70;2.50;;;50.20;35.60;50.30;99767;;;;559841;252;23120;-84
2023/07/29 07:42:48;;;;;;;3.72;2.58;;;50.70;35.50;50.70;99772;;;;559889;252;23143;-85
2023/07/29 07:45:17;;;;;;;2.42;2.33;;;50.70;35.40;50.70;99775;;;;559633;252;23149;-85
2023/07/29 07:47:44;;;;;;;7.28;2.67;;;50.90;34.60;50.80;99772;;;;559569;252;23195;-84
2023/07/29 07:50:14;;;;;;;2.75;2.37;;;50.90;34.30;51.00;99768;;;;559767;252;23113;-85
2023/07/29 07:52:41;;;;;;;3.15;2.85;;;51.30;34.00;51.20;99769;;;;559693;252;23145;-86
2023/07/29 07:55:09;;;;;;;2.90;2.50;;;51.40;35.10;51.40;99773;;;;559693;252;23122;-86
2023/07/29 07:57:37;;;;;;;3.20;2.60;;;51.30;34.20;51.50;99765;;;;559694;252;23155;-86
2023/07/29 08:00:05;;;;;;;2.60;2.40;;;51.50;33.70;51.00;99766;;;;560029;252;24217;-86
2023/07/29 08:02:33;;;;;;;2.65;2.55;;;51.10;33.60;50.90;99774;;;;560036;253;23168;-86
2023/07/29 08:05:01;;;;;;;2.22;2.15;;;51.00;34.00;50.90;99774;;;;559468;253;23125;-86
2023/07/29 08:07:29;;;;;;;2.40;2.30;;;51.00;33.40;51.30;99777;;;;559426;253;23180;-86
2023/07/29 08:09:58;;;;;;;2.47;2.37;;;51.70;33.00;51.70;99772;;;;559080;253;23147;-85
2023/07/29 08:12:26;;;;;;;2.45;2.15;;;51.70;33.00;51.90;99779;;;;559450;253;23180;-86
2023/07/29 08:14:54;;;;;;;2.30;2.20;;;52.00;32.60;52.00;99764;;;;560159;253;23156;-86
2023/07/29 08:17:22;;;;;;;3.75;2.30;;;52.10;32.50;51.70;99763;;;;559729;253;23129;-86
2023/07/29 08:19:50;;;;;;;3.95;2.33;;;51.90;31.90;51.60;99763;;;;559311;253;23154;-86
2023/07/29 08:22:20;;;;;;;3.67;2.20;;;51.90;31.70;51.60;99761;;;;559171;253;23164;-84
2023/07/29 08:24:47;;;;;;;4.50;2.05;;;51.80;31.60;51.80;99764;;;;559026;253;23148;-86
2023/07/29 08:27:15;;;;;;;2.50;2.40;;;52.00;32.20;51.90;99755;;;;559113;253;23121;-85
2023/07/29 08:29:43;;;;;;;3.62;2.42;;;52.10;32.00;52.00;99754;;;;559622;253;23129;-86
2023/07/29 08:32:11;;;;;;;3.22;2.20;;;52.20;31.40;52.00;99756;;;;559717;253;24163;-87
2023/07/29 08:34:39;;;;;;;3.10;2.30;;;52.20;31.30;51.80;99758;;;;559701;253;24186;-87
2023/07/29 08:37:07;;;;;;;2.20;2.10;;;52.10;31.60;51.70;99758;;;;560149;252;23119;-87
2023/07/29 08:39:35;;;;;;;2.50;2.30;;;52.10;31.50;51.30;99755;;;;560755;252;23151;-86
2023/07/29 08:42:06;;;;;;;2.15;2.05;;;51.90;32.00;51.10;99754;;;;560424;252;23132;-86
2023/07/29 08:44:42;;;;;;;2.05;1.95;;;51.60;32.10;51.00;99749;;;;568575;252;23140;-86
2023/07/29 08:47:13;;;;;;;1.65;1.62;;;51.50;31.20;50.80;99756;;;;559921;252;23125;-86
2023/07/29 08:49:38;;;;;;;2.22;2.08;;;51.50;31.80;50.80;99755;;;;559419;252;23176;-85
2023/07/29 08:52:06;;;;;;;2.95;1.70;;;51.40;31.10;50.70;99753;;;;568113;249;23136;-86
2023/07/29 08:54:37;;;;;;;4.68;2.83;;;51.30;31.70;50.50;99746;;;;568418;252;23139;-84
2023/07/29 08:57:05;;;;;;;2.85;1.98;;;51.00;31.30;50.20;99752;;;;559081;252;23132;-85
2023/07/29 08:59:34;;;;;;;2.20;2.10;;;50.80;32.20;50.20;99752;;;;559234;252;23143;-86
2023/07/29 09:01:59;;;;;;;2.47;2.20;;;50.80;31.50;50.50;99753;;;;562692;252;23137;-87
2023/07/29 09:04:28;;;;;;;2.95;1.98;;;51.10;32.00;50.50;99752;;;;559994;252;23148;-86
2023/07/29 09:06:55;;;;;;;2.10;2.00;;;51.30;31.10;50.10;99759;;;;559809;252;23221;-86
2023/07/29 09:09:26;;;;;;;2.50;2.30;;;51.10;31.20;50.20;99756;;;;559930;252;23129;-85
2023/07/29 09:11:53;;;;;;;4.20;2.10;;;51.00;32.10;50.70;99753;;;;567729;251;23205;-86
2023/07/29 09:14:19;;;;;;;2.75;2.17;;;51.70;30.60;51.00;99752;;;;557014;253;23133;-85
2023/07/29 09:16:48;;;;;;;2.00;1.90;;;51.90;30.70;51.00;99751;;;;559169;253;23183;-84
2023/07/29 09:19:16;;;;;;;2.75;2.10;;;51.80;30.60;51.10;99754;;;;559321;253;23118;-85
2023/07/29 09:21:44;;;;;;;3.83;2.10;;;52.00;30.50;51.20;99756;;;;557172;253;23121;-86
2023/07/29 09:24:12;;;;;;;2.12;2.03;;;52.00;30.70;51.50;99759;;;;559246;253;23129;-86
2023/07/29 09:26:39;;;;;;;2.20;2.00;;;52.30;30.70;51.80;99754;;;;558975;253;23164;-86
2023/07/29 09:29:07;;;;;;;2.25;1.85;;;52.70;30.50;51.80;99753;;;;557236;253;23173;-85
2023/07/29 09:31:35;;;;;;;2.10;2.00;;;52.90;30.40;51.70;99750;;;;559644;253;23169;-85
2023/07/29 09:34:03;;;;;;;3.05;2.03;;;52.90;30.00;51.30;99753;;;;559593;253;23121;-87
2023/07/29 09:36:31;;;;;;;3.28;1.95;;;52.70;29.90;50.50;99761;;;;557513;253;23128;-86
2023/07/29 09:39:00;;;;;;;3.00;2.33;;;52.00;31.00;50.70;99763;;;;557407;253;23114;-85
2023/07/29 09:41:30;;;;;;;4.05;2.05;;;51.90;30.90;51.20;99758;;;;558998;253;23260;-84
2023/07/29 09:43:58;;;;;;;3.72;3.50;;;52.30;30.50;51.70;99755;;;;557109;253;23151;-86
2023/07/29 09:46:32;;;;;;;2.10;2.00;;;52.70;29.40;51.90;99756;;;;557046;253;23148;-85
2023/07/29 09:49:00;;;;;;;2.20;2.03;;;53.10;29.60;52.00;99760;;;;559830;252;23159;-85
2023/07/29 09:51:28;;;;;;;4.32;2.05;;;53.40;29.30;52.00;99752;;;;560059;252;23207;-85
2023/07/29 09:54:00;;;;;;;2.00;1.90;;;53.50;29.80;52.80;99744;;;;559893;252;23121;-86
2023/07/29 09:56:27;;;;;;;2.00;1.90;;;54.00;29.70;53.00;99747;;;;559502;252;23187;-86
2023/07/29 09:59:00;;;;;;;2.42;2.22;;;54.40;29.50;53.30;99743;;;;559835;252;23198;-86
2023/07/29 10:01:28;;;;;;;2.60;2.47;;;54.80;29.20;53.00;99743;;;;558924;252;23144;-86
2023/07/29 10:03:56;;;;;;;7.62;2.75;;;54.60;29.00;53.00;99745;;;;557465;252;23224;-86
2023/07/29 10:06:21;;;;;;;2.42;2.33;;;54.80;29.50;53.40;99745;;;;559563;252;23136;-86
2023/07/29 10:08:49;;;;;;;2.28;2.08;;;54.60;28.70;52.80;99746;;;;567632;249;23147;-86
2023/07/29 10:11:20;;;;;;;7.72;2.70;;;54.50;29.30;52.80;99740;;;;557470;252;23157;-85
2023/07/29 10:13:46;;;;;;;2.50;2.40;;;54.50;28.90;53.00;99738;;;;558912;252;23194;-86
2023/07/29 10:16:14;;;;;;;3.20;2.50;;;54.70;29.10;53.00;99738;;;;559268;252;23149;-87
2023/07/29 10:18:42;;;;;;;2.17;2.08;;;54.80;28.80;52.90;99738;;;;557154;252;23194;-86
2023/07/29 10:21:10;;;;;;;2.40;2.30;;;54.80;28.10;52.00;99724;;;;558985;252;23143;-86
2023/07/29 10:23:39;;;;;;;1.87;1.87;;;54.20;28.50;51.20;99732;;;;557119;252;23168;-86
2023/07/29 10:26:07;;;;;;;2.10;2.00;;;53.50;28.70;50.90;99723;;;;566928;249;23166;-86
2023/07/29 10:28:35;;;;;;;2.30;2.10;;;52.90;29.20;50.50;99722;;;;556707;253;23130;-86
2023/07/29 10:31:03;;;;;;;2.15;2.05;;;51.80;29.30;49.80;99719;;;;556533;253;24172;-86
2023/07/29 10:33:31;;;;;;;2.00;1.90;;;51.80;29.20;49.30;99715;;;;557175;253;23157;-86
2023/07/29 10:36:02;;;;;;;2.40;2.30;;;51.20;29.80;48.80;99726;;;;557131;253;23155;-85
2023/07/29 10:38:27;;;;;;;2.67;1.98;;;50.60;31.00;48.20;99723;;;;562553;253;23133;-85
2023/07/29 10:41:02;;;;;;;2.08;1.98;;;50.10;30.90;47.30;99732;;;;559319;253;23122;-83
2023/07/29 10:43:35;;;;;;;2.53;2.42;;;49.30;30.70;46.20;99724;;;;556753;253;23159;-84
2023/07/29 10:46:21;;;;;;;2.78;2.45;;;48.30;31.70;44.90;99731;;;;556535;253;23148;-85
2023/07/29 10:48:51;;;;;;;2.37;2.17;;;46.80;32.30;43.40;99727;;;;559492;253;23177;-86
2023/07/29 10:51:32;;;;;;;2.50;2.40;;;45.00;33.90;41.90;99714;;;;568161;253;23144;-85
2023/07/29 10:54:01;;;;;;;2.45;2.28;;;43.30;34.00;40.20;99722;;;;559690;253;23185;-84
2023/07/29 10:56:32;;;;;;;4.22;2.72;;;41.50;34.50;38.70;99715;;;;566060;249;24184;-85
2023/07/29 10:59:17;;;;;;;2.55;2.42;;;39.60;36.80;37.50;99706;;;;558994;253;23147;-83
2023/07/29 11:01:42;;;;;;;2.50;2.40;;;38.30;37.30;36.50;99707;;;;561357;252;23140;-84
2023/07/29 11:04:26;;;;;;;3.50;3.25;;;36.00;40.50;35.50;99706;;;;560027;252;23135;-83
2023/07/29 11:07:06;;;;;;;2.37;2.10;;;35.90;40.40;34.50;99691;;;;560134;251;23133;-84
2023/07/29 11:09:56;;;;;;;2.30;2.15;;;35.00;41.00;33.70;99695;;;;568811;252;23170;-83
2023/07/29 11:12:51;;;;;;;4.12;2.50;;;34.20;42.30;32.90;99703;;;;560848;252;23120;-83
2023/07/29 11:15:20;;;;;;;1.80;1.70;;;33.40;43.80;32.10;99698;;;;560190;252;24172;-83
2023/07/29 11:17:45;;;;;;;3.62;2.08;;;32.60;45.40;31.60;99693;;;;568103;252;23137;-82
2023/07/29 11:20:15;;;;;;;1.95;1.60;;;32.10;46.20;31.10;99691;;;;568793;252;23129;-84